sensor_id;sensor_type;location;lat;lon;timestamp;P1;durP1;ratioP1;P2;durP2;ratioP2
18875;SDS011;9570;50.854;13.778;2022-12-18T00:01:29;8.68;;;4.85;;
18875;SDS011;9570;50.854;13.778;2022-12-18T00:04:00;6.75;;;4.20;;
18875;SDS011;9570;50.854;13.778;2022-12-18T00:06:28;8.45;;;4.88;;
18875;SDS011;9570;50.854;13.778;2022-12-18T00:08:54;8.40;;;4.95;;
18875;SDS011;9570;50.854;13.778;2022-12-18T00:11:22;7.90;;;4.72;;
18875;SDS011;9570;50.854;13.778;2022-12-18T00:13:49;8.02;;;4.90;;
18875;SDS011;9570;50.854;13.778;2022-12-18T00:16:17;8.32;;;5.05;;
18875;SDS011;9570;50.854;13.778;2022-12-18T00:18:45;9.52;;;5.13;;
18875;SDS011;9570;50.854;13.778;2022-12-18T00:21:11;7.38;;;4.78;;
18875;SDS011;9570;50.854;13.778;2022-12-18T00:23:39;8.70;;;4.85;;
18875;SDS011;9570;50.854;13.778;2022-12-18T00:26:06;8.48;;;4.80;;
18875;SDS011;9570;50.854;13.778;2022-12-18T00:28:35;8.23;;;4.75;;
18875;SDS011;9570;50.854;13.778;2022-12-18T00:31:09;8.10;;;4.50;;
18875;SDS011;9570;50.854;13.778;2022-12-18T00:33:36;8.15;;;4.97;;
18875;SDS011;9570;50.854;13.778;2022-12-18T00:36:03;8.68;;;4.53;;
18875;SDS011;9570;50.854;13.778;2022-12-18T00:38:29;8.48;;;4.80;;
18875;SDS011;9570;50.854;13.778;2022-12-18T00:40:55;8.17;;;5.07;;
18875;SDS011;9570;50.854;13.778;2022-12-18T00:43:21;7.93;;;5.00;;
18875;SDS011;9570;50.854;13.778;2022-12-18T00:45:46;6.57;;;4.03;;
18875;SDS011;9570;50.854;13.778;2022-12-18T00:48:12;8.40;;;4.63;;
18875;SDS011;9570;50.854;13.778;2022-12-18T00:50:37;8.60;;;4.47;;
18875;SDS011;9570;50.854;13.778;2022-12-18T00:53:03;10.57;;;5.37;;
18875;SDS011;9570;50.854;13.778;2022-12-18T00:55:28;8.00;;;4.30;;
18875;SDS011;9570;50.854;13.778;2022-12-18T00:57:54;10.00;;;4.93;;
18875;SDS011;9570;50.854;13.778;2022-12-18T01:00:20;8.83;;;4.67;;
18875;SDS011;9570;50.854;13.778;2022-12-18T01:02:45;8.68;;;4.43;;
18875;SDS011;9570;50.854;13.778;2022-12-18T01:05:12;6.27;;;4.20;;
18875;SDS011;9570;50.854;13.778;2022-12-18T01:07:38;6.82;;;4.90;;
18875;SDS011;9570;50.854;13.778;2022-12-18T01:10:05;8.77;;;4.15;;
18875;SDS011;9570;50.854;13.778;2022-12-18T01:12:31;5.78;;;4.15;;
18875;SDS011;9570;50.854;13.778;2022-12-18T01:14:57;10.53;;;4.40;;
18875;SDS011;9570;50.854;13.778;2022-12-18T01:17:22;7.77;;;4.30;;
18875;SDS011;9570;50.854;13.778;2022-12-18T01:19:48;5.82;;;3.78;;
18875;SDS011;9570;50.854;13.778;2022-12-18T01:22:14;8.00;;;4.67;;
18875;SDS011;9570;50.854;13.778;2022-12-18T01:24:39;9.67;;;5.13;;
18875;SDS011;9570;50.854;13.778;2022-12-18T01:27:05;8.57;;;4.90;;
18875;SDS011;9570;50.854;13.778;2022-12-18T01:29:31;8.27;;;4.97;;
18875;SDS011;9570;50.854;13.778;2022-12-18T01:31:56;9.07;;;4.53;;
18875;SDS011;9570;50.854;13.778;2022-12-18T01:34:22;9.23;;;4.87;;
18875;SDS011;9570;50.854;13.778;2022-12-18T01:36:49;9.65;;;4.53;;
18875;SDS011;9570;50.854;13.778;2022-12-18T01:39:17;8.50;;;4.88;;
18875;SDS011;9570;50.854;13.778;2022-12-18T01:41:43;6.32;;;3.97;;
18875;SDS011;9570;50.854;13.778;2022-12-18T01:44:51;6.00;;;4.20;;
18875;SDS011;9570;50.854;13.778;2022-12-18T01:53:02;6.80;;;4.30;;
18875;SDS011;9570;50.854;13.778;2022-12-18T01:55:32;6.72;;;4.18;;
18875;SDS011;9570;50.854;13.778;2022-12-18T01:58:03;6.72;;;4.13;;
18875;SDS011;9570;50.854;13.778;2022-12-18T02:00:29;8.07;;;3.85;;
18875;SDS011;9570;50.854;13.778;2022-12-18T02:02:55;6.27;;;3.80;;
18875;SDS011;9570;50.854;13.778;2022-12-18T02:05:36;5.63;;;3.92;;
18875;SDS011;9570;50.854;13.778;2022-12-18T02:08:20;7.55;;;4.15;;
18875;SDS011;9570;50.854;13.778;2022-12-18T02:11:11;6.93;;;4.20;;
18875;SDS011;9570;50.854;13.778;2022-12-18T02:14:17;6.00;;;4.22;;
18875;SDS011;9570;50.854;13.778;2022-12-18T02:17:01;7.43;;;4.47;;
18875;SDS011;9570;50.854;13.778;2022-12-18T02:19:58;7.68;;;4.45;;
18875;SDS011;9570;50.854;13.778;2022-12-18T02:27:26;9.80;;;3.88;;
18875;SDS011;9570;50.854;13.778;2022-12-18T02:29:54;8.05;;;4.75;;
18875;SDS011;9570;50.854;13.778;2022-12-18T02:32:24;5.38;;;4.18;;
18875;SDS011;9570;50.854;13.778;2022-12-18T02:34:52;7.10;;;4.13;;
18875;SDS011;9570;50.854;13.778;2022-12-18T02:37:21;6.72;;;4.20;;
18875;SDS011;9570;50.854;13.778;2022-12-18T02:39:48;7.38;;;4.60;;
18875;SDS011;9570;50.854;13.778;2022-12-18T02:42:17;7.97;;;3.80;;
18875;SDS011;9570;50.854;13.778;2022-12-18T02:44:48;6.78;;;4.10;;
18875;SDS011;9570;50.854;13.778;2022-12-18T02:47:17;6.75;;;3.70;;
18875;SDS011;9570;50.854;13.778;2022-12-18T02:55:04;11.20;;;4.35;;
18875;SDS011;9570;50.854;13.778;2022-12-18T03:00:24;4.45;;;3.40;;
18875;SDS011;9570;50.854;13.778;2022-12-18T03:03:21;7.32;;;4.03;;
18875;SDS011;9570;50.854;13.778;2022-12-18T03:05:50;7.32;;;4.05;;
18875;SDS011;9570;50.854;13.778;2022-12-18T03:08:29;7.63;;;4.32;;
18875;SDS011;9570;50.854;13.778;2022-12-18T03:11:03;5.55;;;4.00;;
18875;SDS011;9570;50.854;13.778;2022-12-18T03:13:37;8.35;;;3.70;;
18875;SDS011;9570;50.854;13.778;2022-12-18T03:16:11;6.28;;;3.90;;
18875;SDS011;9570;50.854;13.778;2022-12-18T03:18:45;7.22;;;4.20;;
18875;SDS011;9570;50.854;13.778;2022-12-18T03:21:21;7.45;;;4.30;;
18875;SDS011;9570;50.854;13.778;2022-12-18T03:23:51;7.28;;;3.95;;
18875;SDS011;9570;50.854;13.778;2022-12-18T03:26:19;6.57;;;3.63;;
18875;SDS011;9570;50.854;13.778;2022-12-18T03:28:51;8.50;;;4.25;;
18875;SDS011;9570;50.854;13.778;2022-12-18T03:31:24;7.95;;;4.22;;
18875;SDS011;9570;50.854;13.778;2022-12-18T03:36:19;7.35;;;4.10;;
18875;SDS011;9570;50.854;13.778;2022-12-18T03:38:45;7.17;;;4.00;;
18875;SDS011;9570;50.854;13.778;2022-12-18T03:43:52;6.88;;;4.15;;
18875;SDS011;9570;50.854;13.778;2022-12-18T03:46:38;6.63;;;4.40;;
18875;SDS011;9570;50.854;13.778;2022-12-18T03:52:08;5.40;;;3.72;;
18875;SDS011;9570;50.854;13.778;2022-12-18T03:54:38;6.68;;;4.20;;
18875;SDS011;9570;50.854;13.778;2022-12-18T03:57:10;6.88;;;4.20;;
18875;SDS011;9570;50.854;13.778;2022-12-18T03:59:40;5.55;;;3.55;;
18875;SDS011;9570;50.854;13.778;2022-12-18T04:02:07;6.63;;;4.25;;
18875;SDS011;9570;50.854;13.778;2022-12-18T04:04:34;8.73;;;4.22;;
18875;SDS011;9570;50.854;13.778;2022-12-18T04:07:02;6.50;;;4.22;;
18875;SDS011;9570;50.854;13.778;2022-12-18T04:09:29;5.22;;;4.00;;
18875;SDS011;9570;50.854;13.778;2022-12-18T04:11:56;5.40;;;4.25;;
18875;SDS011;9570;50.854;13.778;2022-12-18T04:14:22;6.37;;;4.03;;
18875;SDS011;9570;50.854;13.778;2022-12-18T04:16:47;6.53;;;3.93;;
18875;SDS011;9570;50.854;13.778;2022-12-18T04:19:13;7.23;;;4.20;;
18875;SDS011;9570;50.854;13.778;2022-12-18T04:21:39;6.17;;;4.67;;
18875;SDS011;9570;50.854;13.778;2022-12-18T04:24:04;6.63;;;4.00;;
18875;SDS011;9570;50.854;13.778;2022-12-18T04:26:30;6.23;;;4.10;;
18875;SDS011;9570;50.854;13.778;2022-12-18T04:28:55;6.00;;;4.10;;
18875;SDS011;9570;50.854;13.778;2022-12-18T04:31:21;8.03;;;4.23;;
18875;SDS011;9570;50.854;13.778;2022-12-18T04:33:46;5.23;;;3.77;;
18875;SDS011;9570;50.854;13.778;2022-12-18T04:36:12;6.20;;;4.03;;
18875;SDS011;9570;50.854;13.778;2022-12-18T04:38:37;9.43;;;4.40;;
18875;SDS011;9570;50.854;13.778;2022-12-18T04:41:03;6.53;;;3.83;;
18875;SDS011;9570;50.854;13.778;2022-12-18T04:43:29;7.37;;;4.20;;
18875;SDS011;9570;50.854;13.778;2022-12-18T04:46:01;8.67;;;4.77;;
18875;SDS011;9570;50.854;13.778;2022-12-18T04:48:27;7.50;;;4.65;;
18875;SDS011;9570;50.854;13.778;2022-12-18T04:50:53;9.27;;;4.83;;
18875;SDS011;9570;50.854;13.778;2022-12-18T04:53:18;6.17;;;4.07;;
18875;SDS011;9570;50.854;13.778;2022-12-18T04:55:43;6.93;;;4.33;;
18875;SDS011;9570;50.854;13.778;2022-12-18T04:58:09;5.83;;;4.10;;
18875;SDS011;9570;50.854;13.778;2022-12-18T05:00:35;8.33;;;4.57;;
18875;SDS011;9570;50.854;13.778;2022-12-18T05:03:01;7.83;;;4.57;;
18875;SDS011;9570;50.854;13.778;2022-12-18T05:05:27;6.75;;;4.53;;
18875;SDS011;9570;50.854;13.778;2022-12-18T05:07:52;9.00;;;4.37;;
18875;SDS011;9570;50.854;13.778;2022-12-18T05:10:18;9.40;;;5.10;;
18875;SDS011;9570;50.854;13.778;2022-12-18T05:12:43;8.23;;;4.77;;
18875;SDS011;9570;50.854;13.778;2022-12-18T05:15:28;8.18;;;4.85;;
18875;SDS011;9570;50.854;13.778;2022-12-18T05:17:55;5.55;;;4.30;;
18875;SDS011;9570;50.854;13.778;2022-12-18T05:20:21;8.77;;;4.60;;
18875;SDS011;9570;50.854;13.778;2022-12-18T05:22:46;8.30;;;5.00;;
18875;SDS011;9570;50.854;13.778;2022-12-18T05:25:12;5.87;;;4.50;;
18875;SDS011;9570;50.854;13.778;2022-12-18T05:27:38;8.23;;;4.93;;
18875;SDS011;9570;50.854;13.778;2022-12-18T05:30:03;8.43;;;5.60;;
18875;SDS011;9570;50.854;13.778;2022-12-18T05:32:29;8.43;;;6.17;;
18875;SDS011;9570;50.854;13.778;2022-12-18T05:34:55;10.90;;;6.18;;
18875;SDS011;9570;50.854;13.778;2022-12-18T05:37:22;12.23;;;6.05;;
18875;SDS011;9570;50.854;13.778;2022-12-18T05:39:47;11.60;;;5.60;;
18875;SDS011;9570;50.854;13.778;2022-12-18T05:42:13;10.20;;;5.93;;
18875;SDS011;9570;50.854;13.778;2022-12-18T05:44:38;10.97;;;5.63;;
18875;SDS011;9570;50.854;13.778;2022-12-18T05:47:04;10.00;;;5.77;;
18875;SDS011;9570;50.854;13.778;2022-12-18T05:49:29;10.00;;;5.63;;
18875;SDS011;9570;50.854;13.778;2022-12-18T05:51:55;9.93;;;6.20;;
18875;SDS011;9570;50.854;13.778;2022-12-18T05:54:20;10.27;;;5.33;;
18875;SDS011;9570;50.854;13.778;2022-12-18T05:56:46;12.00;;;6.20;;
18875;SDS011;9570;50.854;13.778;2022-12-18T05:59:12;9.73;;;5.63;;
18875;SDS011;9570;50.854;13.778;2022-12-18T06:01:37;12.53;;;5.90;;
18875;SDS011;9570;50.854;13.778;2022-12-18T06:04:03;9.87;;;5.53;;
18875;SDS011;9570;50.854;13.778;2022-12-18T06:06:29;9.77;;;6.03;;
18875;SDS011;9570;50.854;13.778;2022-12-18T06:08:54;11.07;;;5.30;;
18875;SDS011;9570;50.854;13.778;2022-12-18T06:11:22;10.23;;;5.88;;
18875;SDS011;9570;50.854;13.778;2022-12-18T06:13:50;8.27;;;5.45;;
18875;SDS011;9570;50.854;13.778;2022-12-18T06:16:16;8.52;;;5.28;;
18875;SDS011;9570;50.854;13.778;2022-12-18T06:18:42;8.87;;;5.33;;
18875;SDS011;9570;50.854;13.778;2022-12-18T06:21:07;10.80;;;5.47;;
18875;SDS011;9570;50.854;13.778;2022-12-18T06:23:33;9.87;;;5.57;;
18875;SDS011;9570;50.854;13.778;2022-12-18T06:25:58;10.77;;;6.20;;
18875;SDS011;9570;50.854;13.778;2022-12-18T06:28:27;11.35;;;5.93;;
18875;SDS011;9570;50.854;13.778;2022-12-18T06:30:53;9.07;;;5.20;;
18875;SDS011;9570;50.854;13.778;2022-12-18T06:33:18;9.43;;;5.20;;
18875;SDS011;9570;50.854;13.778;2022-12-18T06:35:44;11.00;;;5.90;;
18875;SDS011;9570;50.854;13.778;2022-12-18T06:38:09;11.03;;;6.40;;
18875;SDS011;9570;50.854;13.778;2022-12-18T06:40:36;13.37;;;6.70;;
18875;SDS011;9570;50.854;13.778;2022-12-18T06:43:03;9.05;;;5.97;;
18875;SDS011;9570;50.854;13.778;2022-12-18T06:45:29;10.43;;;5.83;;
18875;SDS011;9570;50.854;13.778;2022-12-18T06:47:54;8.97;;;6.00;;
18875;SDS011;9570;50.854;13.778;2022-12-18T06:50:20;9.20;;;5.50;;
18875;SDS011;9570;50.854;13.778;2022-12-18T06:52:45;10.53;;;5.80;;
18875;SDS011;9570;50.854;13.778;2022-12-18T06:55:11;11.37;;;5.80;;
18875;SDS011;9570;50.854;13.778;2022-12-18T06:57:37;10.03;;;6.40;;
18875;SDS011;9570;50.854;13.778;2022-12-18T07:00:03;12.27;;;6.30;;
18875;SDS011;9570;50.854;13.778;2022-12-18T07:02:30;12.15;;;6.85;;
18875;SDS011;9570;50.854;13.778;2022-12-18T07:04:56;12.37;;;7.17;;
18875;SDS011;9570;50.854;13.778;2022-12-18T07:07:21;12.57;;;7.20;;
18875;SDS011;9570;50.854;13.778;2022-12-18T07:09:48;11.03;;;6.27;;
18875;SDS011;9570;50.854;13.778;2022-12-18T07:12:15;13.93;;;6.82;;
18875;SDS011;9570;50.854;13.778;2022-12-18T07:14:40;11.27;;;6.70;;
18875;SDS011;9570;50.854;13.778;2022-12-18T07:17:06;11.57;;;6.40;;
18875;SDS011;9570;50.854;13.778;2022-12-18T07:19:31;13.27;;;6.73;;
18875;SDS011;9570;50.854;13.778;2022-12-18T07:21:57;10.50;;;6.53;;
18875;SDS011;9570;50.854;13.778;2022-12-18T07:24:22;14.23;;;6.73;;
18875;SDS011;9570;50.854;13.778;2022-12-18T07:26:48;14.00;;;7.47;;
18875;SDS011;9570;50.854;13.778;2022-12-18T07:29:13;10.60;;;6.50;;
18875;SDS011;9570;50.854;13.778;2022-12-18T07:31:39;13.17;;;6.53;;
18875;SDS011;9570;50.854;13.778;2022-12-18T07:34:04;11.60;;;6.33;;
18875;SDS011;9570;50.854;13.778;2022-12-18T07:36:30;12.87;;;6.47;;
18875;SDS011;9570;50.854;13.778;2022-12-18T07:38:55;13.10;;;6.93;;
18875;SDS011;9570;50.854;13.778;2022-12-18T07:41:21;13.80;;;6.50;;
18875;SDS011;9570;50.854;13.778;2022-12-18T07:43:47;10.68;;;6.55;;
18875;SDS011;9570;50.854;13.778;2022-12-18T07:46:13;10.60;;;6.33;;
18875;SDS011;9570;50.854;13.778;2022-12-18T07:48:40;12.15;;;6.53;;
18875;SDS011;9570;50.854;13.778;2022-12-18T07:51:07;12.73;;;7.00;;
18875;SDS011;9570;50.854;13.778;2022-12-18T07:53:33;10.35;;;6.35;;
18875;SDS011;9570;50.854;13.778;2022-12-18T07:56:01;12.02;;;7.00;;
18875;SDS011;9570;50.854;13.778;2022-12-18T07:58:29;10.45;;;6.50;;
18875;SDS011;9570;50.854;13.778;2022-12-18T08:01:01;12.45;;;6.43;;
18875;SDS011;9570;50.854;13.778;2022-12-18T08:03:31;11.32;;;5.45;;
18875;SDS011;9570;50.854;13.778;2022-12-18T08:06:00;10.90;;;6.20;;
18875;SDS011;9570;50.854;13.778;2022-12-18T08:08:28;10.45;;;6.10;;
18875;SDS011;9570;50.854;13.778;2022-12-18T08:10:54;10.45;;;6.25;;
18875;SDS011;9570;50.854;13.778;2022-12-18T08:13:20;10.70;;;6.60;;
18875;SDS011;9570;50.854;13.778;2022-12-18T08:15:46;11.27;;;6.23;;
18875;SDS011;9570;50.854;13.778;2022-12-18T08:18:19;8.93;;;5.88;;
18875;SDS011;9570;50.854;13.778;2022-12-18T08:20:45;10.57;;;6.40;;
18875;SDS011;9570;50.854;13.778;2022-12-18T08:23:10;9.47;;;5.87;;
18875;SDS011;9570;50.854;13.778;2022-12-18T08:25:36;11.70;;;6.00;;
18875;SDS011;9570;50.854;13.778;2022-12-18T08:28:01;8.00;;;5.80;;
18875;SDS011;9570;50.854;13.778;2022-12-18T08:30:27;10.90;;;6.10;;
18875;SDS011;9570;50.854;13.778;2022-12-18T08:32:52;8.63;;;6.30;;
18875;SDS011;9570;50.854;13.778;2022-12-18T08:35:18;12.43;;;7.05;;
18875;SDS011;9570;50.854;13.778;2022-12-18T08:37:44;13.33;;;7.30;;
18875;SDS011;9570;50.854;13.778;2022-12-18T08:40:09;12.33;;;7.33;;
18875;SDS011;9570;50.854;13.778;2022-12-18T08:42:35;11.50;;;7.27;;
18875;SDS011;9570;50.854;13.778;2022-12-18T08:45:19;11.50;;;7.28;;
18875;SDS011;9570;50.854;13.778;2022-12-18T08:47:45;10.63;;;6.67;;
18875;SDS011;9570;50.854;13.778;2022-12-18T08:50:10;12.00;;;6.80;;
18875;SDS011;9570;50.854;13.778;2022-12-18T08:52:37;16.42;;;9.30;;
18875;SDS011;9570;50.854;13.778;2022-12-18T08:55:02;14.10;;;7.97;;
18875;SDS011;9570;50.854;13.778;2022-12-18T08:57:28;14.55;;;8.88;;
18875;SDS011;9570;50.854;13.778;2022-12-18T08:59:54;16.83;;;10.70;;
18875;SDS011;9570;50.854;13.778;2022-12-18T09:02:19;17.47;;;10.17;;
18875;SDS011;9570;50.854;13.778;2022-12-18T09:04:46;17.70;;;10.00;;
18875;SDS011;9570;50.854;13.778;2022-12-18T09:07:12;16.25;;;9.57;;
18875;SDS011;9570;50.854;13.778;2022-12-18T09:09:38;16.83;;;9.90;;
18875;SDS011;9570;50.854;13.778;2022-12-18T09:12:03;11.60;;;7.60;;
18875;SDS011;9570;50.854;13.778;2022-12-18T09:14:29;14.03;;;9.13;;
18875;SDS011;9570;50.854;13.778;2022-12-18T09:16:54;17.53;;;9.50;;
18875;SDS011;9570;50.854;13.778;2022-12-18T09:19:20;16.37;;;9.03;;
18875;SDS011;9570;50.854;13.778;2022-12-18T09:21:45;15.47;;;9.40;;
18875;SDS011;9570;50.854;13.778;2022-12-18T09:24:11;15.07;;;9.67;;
18875;SDS011;9570;50.854;13.778;2022-12-18T09:26:38;17.67;;;11.60;;
18875;SDS011;9570;50.854;13.778;2022-12-18T09:29:04;17.20;;;10.57;;
18875;SDS011;9570;50.854;13.778;2022-12-18T09:31:29;16.30;;;11.40;;
18875;SDS011;9570;50.854;13.778;2022-12-18T09:33:55;18.17;;;11.57;;
18875;SDS011;9570;50.854;13.778;2022-12-18T09:36:21;18.55;;;11.38;;
18875;SDS011;9570;50.854;13.778;2022-12-18T09:38:47;38.40;;;20.27;;
18875;SDS011;9570;50.854;13.778;2022-12-18T09:41:29;36.37;;;19.43;;
18875;SDS011;9570;50.854;13.778;2022-12-18T09:44:18;25.23;;;15.38;;
18875;SDS011;9570;50.854;13.778;2022-12-18T09:49:34;22.35;;;14.95;;
18875;SDS011;9570;50.854;13.778;2022-12-18T09:52:09;20.52;;;14.32;;
18875;SDS011;9570;50.854;13.778;2022-12-18T09:54:42;22.58;;;14.55;;
18875;SDS011;9570;50.854;13.778;2022-12-18T09:57:13;23.85;;;14.02;;
18875;SDS011;9570;50.854;13.778;2022-12-18T09:59:42;22.10;;;13.95;;
18875;SDS011;9570;50.854;13.778;2022-12-18T10:02:22;20.67;;;13.85;;
18875;SDS011;9570;50.854;13.778;2022-12-18T10:04:56;22.10;;;13.38;;
18875;SDS011;9570;50.854;13.778;2022-12-18T10:10:13;19.80;;;12.15;;
18875;SDS011;9570;50.854;13.778;2022-12-18T10:15:59;12.15;;;8.38;;
18875;SDS011;9570;50.854;13.778;2022-12-18T10:21:24;9.85;;;6.10;;
18875;SDS011;9570;50.854;13.778;2022-12-18T10:26:47;9.67;;;6.03;;
18875;SDS011;9570;50.854;13.778;2022-12-18T10:29:14;14.87;;;10.10;;
18875;SDS011;9570;50.854;13.778;2022-12-18T10:31:40;12.93;;;8.50;;
18875;SDS011;9570;50.854;13.778;2022-12-18T10:34:15;15.30;;;10.10;;
18875;SDS011;9570;50.854;13.778;2022-12-18T10:36:41;11.30;;;5.77;;
18875;SDS011;9570;50.854;13.778;2022-12-18T10:39:20;11.53;;;6.77;;
18875;SDS011;9570;50.854;13.778;2022-12-18T10:41:47;23.67;;;15.30;;
18875;SDS011;9570;50.854;13.778;2022-12-18T10:46:44;14.60;;;8.73;;
18875;SDS011;9570;50.854;13.778;2022-12-18T10:49:18;11.20;;;6.67;;
18875;SDS011;9570;50.854;13.778;2022-12-18T10:52:04;11.87;;;6.70;;
18875;SDS011;9570;50.854;13.778;2022-12-18T10:54:46;8.87;;;5.50;;
18875;SDS011;9570;50.854;13.778;2022-12-18T10:57:36;10.23;;;5.63;;
18875;SDS011;9570;50.854;13.778;2022-12-18T11:02:51;10.47;;;5.40;;
18875;SDS011;9570;50.854;13.778;2022-12-18T11:05:27;9.07;;;5.53;;
18875;SDS011;9570;50.854;13.778;2022-12-18T11:07:57;7.57;;;4.40;;
18875;SDS011;9570;50.854;13.778;2022-12-18T11:10:26;9.93;;;5.07;;
18875;SDS011;9570;50.854;13.778;2022-12-18T11:13:16;9.37;;;5.17;;
18875;SDS011;9570;50.854;13.778;2022-12-18T11:15:44;8.93;;;5.27;;
18875;SDS011;9570;50.854;13.778;2022-12-18T11:18:27;9.73;;;5.60;;
18875;SDS011;9570;50.854;13.778;2022-12-18T11:23:32;8.93;;;5.70;;
18875;SDS011;9570;50.854;13.778;2022-12-18T11:26:00;8.93;;;6.00;;
18875;SDS011;9570;50.854;13.778;2022-12-18T11:28:50;10.33;;;6.17;;
18875;SDS011;9570;50.854;13.778;2022-12-18T11:31:33;8.03;;;5.20;;
18875;SDS011;9570;50.854;13.778;2022-12-18T11:36:24;8.60;;;5.03;;
18875;SDS011;9570;50.854;13.778;2022-12-18T11:38:53;12.50;;;5.67;;
18875;SDS011;9570;50.854;13.778;2022-12-18T11:41:26;9.10;;;4.93;;
18875;SDS011;9570;50.854;13.778;2022-12-18T11:44:26;8.97;;;5.30;;
18875;SDS011;9570;50.854;13.778;2022-12-18T11:47:00;8.33;;;4.97;;
18875;SDS011;9570;50.854;13.778;2022-12-18T11:49:33;8.80;;;5.20;;
18875;SDS011;9570;50.854;13.778;2022-12-18T11:54:46;7.43;;;4.60;;
18875;SDS011;9570;50.854;13.778;2022-12-18T11:57:33;9.43;;;5.23;;
18875;SDS011;9570;50.854;13.778;2022-12-18T12:00:19;9.10;;;5.23;;
18875;SDS011;9570;50.854;13.778;2022-12-18T12:03:00;8.05;;;4.60;;
18875;SDS011;9570;50.854;13.778;2022-12-18T12:10:49;8.25;;;5.13;;
18875;SDS011;9570;50.854;13.778;2022-12-18T12:16:11;7.77;;;4.90;;
18875;SDS011;9570;50.854;13.778;2022-12-18T12:19:15;10.20;;;5.27;;
18875;SDS011;9570;50.854;13.778;2022-12-18T12:24:54;9.90;;;5.33;;
18875;SDS011;9570;50.854;13.778;2022-12-18T12:27:26;8.97;;;4.80;;
18875;SDS011;9570;50.854;13.778;2022-12-18T12:30:15;9.20;;;4.83;;
18875;SDS011;9570;50.854;13.778;2022-12-18T12:38:19;10.10;;;5.22;;
18875;SDS011;9570;50.854;13.778;2022-12-18T12:41:05;9.55;;;5.43;;
18875;SDS011;9570;50.854;13.778;2022-12-18T12:43:54;10.15;;;5.53;;
18875;SDS011;9570;50.854;13.778;2022-12-18T12:46:22;7.70;;;5.05;;
18875;SDS011;9570;50.854;13.778;2022-12-18T12:48:57;9.57;;;5.72;;
18875;SDS011;9570;50.854;13.778;2022-12-18T12:51:35;13.70;;;5.88;;
18875;SDS011;9570;50.854;13.778;2022-12-18T12:54:04;15.52;;;7.40;;
18875;SDS011;9570;50.854;13.778;2022-12-18T12:56:39;10.95;;;6.28;;
18875;SDS011;9570;50.854;13.778;2022-12-18T13:01:53;9.40;;;5.40;;
18875;SDS011;9570;50.854;13.778;2022-12-18T13:04:39;10.57;;;5.85;;
18875;SDS011;9570;50.854;13.778;2022-12-18T13:07:34;9.75;;;5.30;;
18875;SDS011;9570;50.854;13.778;2022-12-18T13:13:01;8.63;;;5.50;;
18875;SDS011;9570;50.854;13.778;2022-12-18T13:15:41;11.73;;;5.60;;
18875;SDS011;9570;50.854;13.778;2022-12-18T13:18:12;9.98;;;5.50;;
18875;SDS011;9570;50.854;13.778;2022-12-18T13:20:47;8.68;;;5.35;;
18875;SDS011;9570;50.854;13.778;2022-12-18T13:25:47;10.07;;;5.22;;
18875;SDS011;9570;50.854;13.778;2022-12-18T13:28:21;8.52;;;4.85;;
18875;SDS011;9570;50.854;13.778;2022-12-18T13:31:05;10.88;;;5.90;;
18875;SDS011;9570;50.854;13.778;2022-12-18T13:33:43;7.90;;;5.23;;
18875;SDS011;9570;50.854;13.778;2022-12-18T13:36:23;7.68;;;4.35;;
18875;SDS011;9570;50.854;13.778;2022-12-18T13:41:42;8.75;;;4.43;;
18875;SDS011;9570;50.854;13.778;2022-12-18T13:46:58;11.10;;;5.10;;
18875;SDS011;9570;50.854;13.778;2022-12-18T13:49:31;9.45;;;5.00;;
18875;SDS011;9570;50.854;13.778;2022-12-18T13:52:03;8.63;;;4.40;;
18875;SDS011;9570;50.854;13.778;2022-12-18T13:54:45;7.82;;;4.47;;
18875;SDS011;9570;50.854;13.778;2022-12-18T13:57:30;8.77;;;4.68;;
18875;SDS011;9570;50.854;13.778;2022-12-18T14:00:17;11.25;;;5.28;;
18875;SDS011;9570;50.854;13.778;2022-12-18T14:02:50;9.18;;;4.80;;
18875;SDS011;9570;50.854;13.778;2022-12-18T14:05:25;8.95;;;5.45;;
18875;SDS011;9570;50.854;13.778;2022-12-18T14:07:53;10.82;;;5.45;;
18875;SDS011;9570;50.854;13.778;2022-12-18T14:10:19;15.35;;;7.82;;
18875;SDS011;9570;50.854;13.778;2022-12-18T14:12:47;10.55;;;5.80;;
18875;SDS011;9570;50.854;13.778;2022-12-18T14:17:52;11.60;;;6.05;;
18875;SDS011;9570;50.854;13.778;2022-12-18T14:20:39;12.65;;;6.68;;
18875;SDS011;9570;50.854;13.778;2022-12-18T14:23:25;10.50;;;5.57;;
18875;SDS011;9570;50.854;13.778;2022-12-18T14:25:52;9.80;;;5.68;;
18875;SDS011;9570;50.854;13.778;2022-12-18T14:28:17;12.20;;;5.90;;
18875;SDS011;9570;50.854;13.778;2022-12-18T14:30:44;9.30;;;5.73;;
18875;SDS011;9570;50.854;13.778;2022-12-18T14:33:11;11.32;;;6.38;;
18875;SDS011;9570;50.854;13.778;2022-12-18T14:38:23;13.18;;;6.15;;
18875;SDS011;9570;50.854;13.778;2022-12-18T14:40:57;10.75;;;5.65;;
18875;SDS011;9570;50.854;13.778;2022-12-18T14:43:22;12.38;;;6.13;;
18875;SDS011;9570;50.854;13.778;2022-12-18T14:45:48;12.00;;;6.23;;
18875;SDS011;9570;50.854;13.778;2022-12-18T14:51:13;13.82;;;7.45;;
18875;SDS011;9570;50.854;13.778;2022-12-18T14:53:42;11.50;;;7.20;;
18875;SDS011;9570;50.854;13.778;2022-12-18T14:56:17;14.35;;;7.68;;
18875;SDS011;9570;50.854;13.778;2022-12-18T14:58:50;12.30;;;7.18;;
18875;SDS011;9570;50.854;13.778;2022-12-18T15:01:25;16.55;;;7.88;;
18875;SDS011;9570;50.854;13.778;2022-12-18T15:03:51;14.23;;;7.68;;
18875;SDS011;9570;50.854;13.778;2022-12-18T15:06:39;15.88;;;7.80;;
18875;SDS011;9570;50.854;13.778;2022-12-18T15:09:20;15.75;;;8.35;;
18875;SDS011;9570;50.854;13.778;2022-12-18T15:11:48;13.70;;;7.82;;
18875;SDS011;9570;50.854;13.778;2022-12-18T15:14:21;16.73;;;8.68;;
18875;SDS011;9570;50.854;13.778;2022-12-18T15:17:03;17.67;;;8.10;;
18875;SDS011;9570;50.854;13.778;2022-12-18T15:19:41;22.60;;;9.00;;
18875;SDS011;9570;50.854;13.778;2022-12-18T15:22:17;14.45;;;8.07;;
18875;SDS011;9570;50.854;13.778;2022-12-18T15:24:43;16.48;;;8.75;;
18875;SDS011;9570;50.854;13.778;2022-12-18T15:32:35;15.00;;;8.75;;
18875;SDS011;9570;50.854;13.778;2022-12-18T15:37:33;15.60;;;8.38;;
18875;SDS011;9570;50.854;13.778;2022-12-18T15:39:59;14.60;;;8.10;;
18875;SDS011;9570;50.854;13.778;2022-12-18T15:42:24;17.40;;;8.60;;
18875;SDS011;9570;50.854;13.778;2022-12-18T15:45:11;18.73;;;8.48;;
18875;SDS011;9570;50.854;13.778;2022-12-18T15:47:37;15.93;;;8.10;;
18875;SDS011;9570;50.854;13.778;2022-12-18T15:50:03;15.33;;;8.10;;
18875;SDS011;9570;50.854;13.778;2022-12-18T15:52:29;15.05;;;8.07;;
18875;SDS011;9570;50.854;13.778;2022-12-18T15:54:55;14.18;;;7.00;;
18875;SDS011;9570;50.854;13.778;2022-12-18T15:57:39;12.85;;;7.00;;
18875;SDS011;9570;50.854;13.778;2022-12-18T16:00:05;15.37;;;7.50;;
18875;SDS011;9570;50.854;13.778;2022-12-18T16:02:31;19.42;;;8.25;;
18875;SDS011;9570;50.854;13.778;2022-12-18T16:04:56;14.50;;;7.40;;
18875;SDS011;9570;50.854;13.778;2022-12-18T16:07:22;14.13;;;7.27;;
18875;SDS011;9570;50.854;13.778;2022-12-18T16:09:47;12.93;;;6.30;;
18875;SDS011;9570;50.854;13.778;2022-12-18T16:12:21;11.93;;;6.57;;
18875;SDS011;9570;50.854;13.778;2022-12-18T16:14:48;11.38;;;6.47;;
18875;SDS011;9570;50.854;13.778;2022-12-18T16:17:14;11.57;;;6.37;;
18875;SDS011;9570;50.854;13.778;2022-12-18T16:19:40;11.80;;;6.53;;
18875;SDS011;9570;50.854;13.778;2022-12-18T16:22:16;11.03;;;6.07;;
18875;SDS011;9570;50.854;13.778;2022-12-18T16:24:45;12.73;;;6.45;;
18875;SDS011;9570;50.854;13.778;2022-12-18T16:27:10;12.10;;;6.20;;
18875;SDS011;9570;50.854;13.778;2022-12-18T16:29:36;11.20;;;6.40;;
18875;SDS011;9570;50.854;13.778;2022-12-18T16:32:02;11.03;;;5.70;;
18875;SDS011;9570;50.854;13.778;2022-12-18T16:34:28;12.90;;;6.65;;
18875;SDS011;9570;50.854;13.778;2022-12-18T16:36:55;11.75;;;6.25;;
18875;SDS011;9570;50.854;13.778;2022-12-18T16:39:23;11.07;;;6.18;;